Time,TemperatureF,DewpointF,PressureIn,WindDirection,WindDirectionDegrees,WindSpeedMPH,WindSpeedGustMPH,Humidity,HourlyPrecipIn,Conditions,Clouds,dailyrainin,SoftwareType,DateUTC
2013-04-02 10:40:00,35.3,17.5,29.87,ESE,102,7.0,7.0,48,0.00,,,0.00,Wunderground v.1.15,2013-04-02 14:40:00,
2013-04-02 10:45:00,35.4,18.1,29.87,NE,42,6.0,7.0,49,0.00,,,0.00,Wunderground v.1.15,2013-04-02 14:45:00,
2013-04-02 10:50:00,35.6,17.8,29.87,ENE,57,4.0,6.0,48,0.00,,,0.00,Wunderground v.1.15,2013-04-02 14:50:00,
2013-04-02 10:55:00,35.8,17.5,29.87,SSE,161,4.0,6.0,47,0.00,,,0.00,Wunderground v.1.15,2013-04-02 14:55:00,
2013-04-02 11:00:00,35.8,17.5,29.87,NE,44,5.0,8.0,47,0.00,,,0.00,Wunderground v.1.15,2013-04-02 15:00:00,
2013-04-02 11:05:00,36.0,16.7,29.87,NE,49,5.0,8.0,45,0.00,,,0.00,Wunderground v.1.15,2013-04-02 15:05:00,
2013-04-02 11:10:00,36.0,16.7,29.87,East,83,5.0,6.0,45,0.00,,,0.00,Wunderground v.1.15,2013-04-02 15:10:00,
2013-04-02 11:20:00,36.3,17.0,29.86,ENE,69,6.0,6.0,45,0.00,,,0.00,Wunderground v.1.15,2013-04-02 15:20:00,
2013-04-02 11:25:00,36.5,17.1,29.86,NNE,22,5.0,6.0,45,0.00,,,0.00,Wunderground v.1.15,2013-04-02 15:25:00,
2013-04-02 11:30:00,36.4,16.5,29.86,East,84,5.0,5.0,44,0.00,,,0.00,Wunderground v.1.15,2013-04-02 15:30:00,
2013-04-02 11:35:00,36.2,16.9,29.86,NE,38,6.0,9.0,45,0.00,,,0.00,Wunderground v.1.15,2013-04-02 15:35:00,
2013-04-02 11:40:00,36.1,16.8,29.86,ENE,57,7.0,7.0,45,0.00,,,0.00,Wunderground v.1.15,2013-04-02 15:40:00,
2013-04-02 11:45:00,36.3,17.0,29.86,NE,44,6.0,7.0,45,0.00,,,0.00,Wunderground v.1.15,2013-04-02 15:45:00,
2013-04-02 11:55:00,37.5,17.0,29.86,ENE,67,6.0,9.0,43,0.00,,,0.00,Wunderground v.1.15,2013-04-02 15:55:00,
2013-04-02 12:00:00,37.9,16.8,29.85,NE,36,6.0,6.0,42,0.00,,,0.00,Wunderground v.1.15,2013-04-02 16:00:00,
2013-04-02 12:05:00,38.0,15.8,29.85,NNE,19,5.0,13.0,40,0.00,,,0.00,Wunderground v.1.15,2013-04-02 16:05:00,
2013-04-02 12:10:00,37.7,16.1,29.85,ENE,66,6.0,13.0,41,0.00,,,0.00,Wunderground v.1.15,2013-04-02 16:10:00,
2013-04-02 12:15:00,37.3,15.7,29.85,ENE,73,6.0,13.0,41,0.00,,,0.00,Wunderground v.1.15,2013-04-02 16:15:00,
2013-04-02 12:20:00,37.2,16.2,29.85,NNW,338,7.0,7.0,42,0.00,,,0.00,Wunderground v.1.15,2013-04-02 16:20:00,
2013-04-02 12:25:00,37.6,15.4,29.85,ENE,59,6.0,7.0,40,0.00,,,0.00,Wunderground v.1.15,2013-04-02 16:25:00,
2013-04-02 12:30:00,37.7,16.1,29.85,NE,44,6.0,9.0,41,0.00,,,0.00,Wunderground v.1.15,2013-04-02 16:30:00,
2013-04-02 12:40:00,36.9,15.9,29.85,NE,42,7.0,7.0,42,0.00,,,0.00,Wunderground v.1.15,2013-04-02 16:40:00,
2013-04-02 12:45:00,37.2,16.7,29.85,ENE,70,6.0,7.0,43,0.00,,,0.00,Wunderground v.1.15,2013-04-02 16:45:00,
2013-04-02 12:55:00,37.2,15.6,29.84,ENE,70,7.0,12.0,41,0.00,,,0.00,Wunderground v.1.15,2013-04-02 16:55:00,
2013-04-02 13:00:00,37.3,16.8,29.84,NNE,29,7.0,7.0,43,0.00,,,0.00,Wunderground v.1.15,2013-04-02 17:00:00,
2013-04-02 13:05:00,37.2,16.2,29.84,NNE,24,7.0,7.0,42,0.00,,,0.00,Wunderground v.1.15,2013-04-02 17:05:00,
2013-04-02 13:15:00,38.8,16.5,29.83,NE,34,5.0,12.0,40,0.00,,,0.00,Wunderground v.1.15,2013-04-02 17:15:00,
2013-04-02 13:20:00,39.7,15.5,29.83,East,86,6.0,6.0,37,0.00,,,0.00,Wunderground v.1.15,2013-04-02 17:20:00,
2013-04-02 13:25:00,39.7,14.2,29.83,NE,45,6.0,6.0,35,0.00,,,0.00,Wunderground v.1.15,2013-04-02 17:25:00,
2013-04-02 13:35:00,39.6,14.2,29.83,NNE,22,6.0,6.0,35,0.00,,,0.00,Wunderground v.1.15,2013-04-02 17:35:00,
2013-04-02 13:40:00,39.3,14.5,29.83,East,88,6.0,7.0,36,0.00,,,0.00,Wunderground v.1.15,2013-04-02 17:40:00,
2013-04-02 13:45:00,39.3,13.9,29.83,NNE,19,6.0,8.0,35,0.00,,,0.00,Wunderground v.1.15,2013-04-02 17:45:00,
2013-04-02 13:50:00,39.2,13.8,29.83,ENE,67,7.0,10.0,35,0.00,,,0.00,Wunderground v.1.15,2013-04-02 17:50:00,
2013-04-02 14:00:00,39.7,14.2,29.83,NNE,30,8.0,8.0,35,0.00,,,0.00,Wunderground v.1.15,2013-04-02 18:00:00,
2013-04-02 14:10:00,40.0,12.5,29.82,ENE,63,8.0,10.0,32,0.00,,,0.00,Wunderground v.1.15,2013-04-02 18:10:00,
2013-04-02 14:15:00,40.3,12.7,29.82,East,100,9.0,10.0,32,0.00,,,0.00,Wunderground v.1.15,2013-04-02 18:15:00,
2013-04-02 14:20:00,40.7,12.4,29.82,ENE,67,8.0,8.0,31,0.00,,,0.00,Wunderground v.1.15,2013-04-02 18:20:00,
2013-04-02 14:25:00,40.9,13.3,29.82,NNE,13,7.0,10.0,32,0.00,,,0.00,Wunderground v.1.15,2013-04-02 18:25:00,
2013-04-02 14:30:00,41.0,13.4,29.82,East,81,8.0,8.0,32,0.00,,,0.00,Wunderground v.1.15,2013-04-02 18:30:00,
2013-04-02 14:40:00,41.2,12.8,29.82,ENE,57,7.0,7.0,31,0.00,,,0.00,Wunderground v.1.15,2013-04-02 18:40:00,
2013-04-02 14:45:00,40.9,12.5,29.82,NE,53,6.0,16.0,31,0.00,,,0.00,Wunderground v.1.15,2013-04-02 18:45:00,
2013-04-02 14:50:00,40.3,12.7,29.81,NE,44,8.0,8.0,32,0.00,,,0.00,Wunderground v.1.15,2013-04-02 18:50:00,
2013-04-02 14:55:00,40.5,13.6,29.82,NNE,27,7.0,9.0,33,0.00,,,0.00,Wunderground v.1.15,2013-04-02 18:55:00,
2013-04-02 15:00:00,40.3,13.4,29.82,ENE,76,7.0,7.0,33,0.00,,,0.00,Wunderground v.1.15,2013-04-02 19:00:00,
2013-04-02 15:05:00,40.5,14.3,29.81,ENE,78,7.0,7.0,34,0.00,,,0.00,Wunderground v.1.15,2013-04-02 19:05:00,
2013-04-02 15:10:00,40.8,13.2,29.81,East,88,7.0,7.0,32,0.00,,,0.00,Wunderground v.1.15,2013-04-02 19:10:00,
2013-04-02 15:15:00,40.6,13.7,29.81,NE,49,8.0,16.0,33,0.00,,,0.00,Wunderground v.1.15,2013-04-02 19:15:00,
2013-04-02 15:20:00,40.4,14.2,29.81,NE,37,8.0,8.0,34,0.00,,,0.00,Wunderground v.1.15,2013-04-02 19:20:00,
2013-04-02 15:25:00,40.1,12.6,29.82,NNE,25,7.0,8.0,32,0.00,,,0.00,Wunderground v.1.15,2013-04-02 19:25:00,
2013-04-02 15:30:00,39.9,12.4,29.81,ENE,76,6.0,6.0,32,0.00,,,0.00,Wunderground v.1.15,2013-04-02 19:30:00,
2013-04-02 15:35:00,40.2,13.3,29.82,North,360,6.0,6.0,33,0.00,,,0.00,Wunderground v.1.15,2013-04-02 19:35:00,
2013-04-02 15:45:00,40.2,11.9,29.81,NNE,13,8.0,8.0,31,0.00,,,0.00,Wunderground v.1.15,2013-04-02 19:45:00,
2013-04-02 15:50:00,40.4,13.5,29.82,North,5,8.0,8.0,33,0.00,,,0.00,Wunderground v.1.15,2013-04-02 19:50:00,
2013-04-02 15:55:00,41.0,13.4,29.81,East,83,7.0,8.0,32,0.00,,,0.00,Wunderground v.1.15,2013-04-02 19:55:00,
2013-04-02 16:00:00,40.9,12.5,29.82,NNE,27,7.0,7.0,31,0.00,,,0.00,Wunderground v.1.15,2013-04-02 20:00:00,
2013-04-02 16:05:00,40.2,12.6,29.82,NNE,17,7.0,7.0,32,0.00,,,0.00,Wunderground v.1.15,2013-04-02 20:05:00,
2013-04-02 16:15:00,39.5,13.4,29.81,NNE,19,7.0,7.0,34,0.00,,,0.00,Wunderground v.1.15,2013-04-02 20:15:00,
2013-04-02 16:20:00,39.4,13.3,29.82,NE,56,7.0,7.0,34,0.00,,,0.00,Wunderground v.1.15,2013-04-02 20:20:00,
2013-04-02 16:25:00,39.3,11.9,29.82,ENE,65,7.0,7.0,32,0.00,,,0.00,Wunderground v.1.15,2013-04-02 20:25:00,
2013-04-02 16:30:00,39.5,12.7,29.82,NNE,32,7.0,7.0,33,0.00,,,0.00,Wunderground v.1.15,2013-04-02 20:30:00,
2013-04-02 16:35:00,39.8,13.0,29.82,NE,41,6.0,8.0,33,0.00,,,0.00,Wunderground v.1.15,2013-04-02 20:35:00,